Time;durP1;ratioP1;P1;durP2;ratioP2;P2;SDS_P1;SDS_P2;PMS_P1;PMS_P2;Temp;Humidity;BMP_temperature;BMP_pressure;BME280_temperature;BME280_humidity;BME280_pressure;Samples;Min_cycle;Max_cycle;Signal;HPM_P1;HPM_P2
2021/04/13 00:00:34;;;;;;;7.97;5.35;;;4.40;99.90;;;;;;5120631;28;20023;-76
2021/04/13 00:03:05;;;;;;;6.32;3.60;;;4.40;99.90;;;;;;5114871;28;20073;-75
2021/04/13 00:05:41;;;;;;;6.47;3.92;;;4.40;99.90;;;;;;5124905;28;20027;-77
2021/04/13 00:08:18;;;;;;;4.95;3.13;;;4.30;99.90;;;;;;5110864;28;20052;-78
2021/04/13 00:10:49;;;;;;;8.30;3.05;;;4.30;99.90;;;;;;5100324;28;20032;-77
2021/04/13 00:13:16;;;;;;;6.20;2.90;;;4.20;99.90;;;;;;5115370;28;20039;-77
2021/04/13 00:15:51;;;;;;;4.75;2.97;;;4.30;99.90;;;;;;5108300;28;20024;-76
2021/04/13 00:18:24;;;;;;;6.32;3.70;;;4.30;99.90;;;;;;5107193;28;20024;-75
2021/04/13 00:21:08;;;;;;;2.95;2.60;;;4.20;99.90;;;;;;5111329;28;20023;-75
2021/04/13 00:23:36;;;;;;;4.25;2.38;;;4.20;99.90;;;;;;5110906;28;20052;-76
2021/04/13 00:26:08;;;;;;;4.47;2.70;;;4.20;99.90;;;;;;5094331;28;20032;-77
2021/04/13 00:28:36;;;;;;;;;;;4.20;99.90;;;;;;5104599;28;20032;-77
2021/04/13 00:31:06;;;;;;;3.85;2.10;;;4.20;99.90;;;;;;5108933;28;19994;-76
2021/04/13 00:33:36;;;;;;;3.38;2.70;;;4.20;99.90;;;;;;5112438;28;20032;-78
2021/04/13 00:36:10;;;;;;;5.35;2.72;;;4.20;99.90;;;;;;5090765;28;20040;-77
2021/04/13 00:38:47;;;;;;;3.85;2.53;;;4.10;99.90;;;;;;5113442;28;20083;-77
2021/04/13 00:41:30;;;;;;;4.18;2.70;;;4.20;99.90;;;;;;5106559;28;20039;-76
2021/04/13 00:44:06;;;;;;;5.78;2.35;;;4.10;99.90;;;;;;5090671;28;20048;-76
2021/04/13 00:46:40;;;;;;;4.90;2.63;;;4.00;99.90;;;;;;5114011;28;20559;-76
2021/04/13 00:49:07;;;;;;;2.97;2.25;;;4.00;99.90;;;;;;5112032;28;20046;-76
2021/04/13 00:51:41;;;;;;;3.85;2.65;;;4.00;99.90;;;;;;5104128;28;20039;-75
2021/04/13 00:54:11;;;;;;;4.38;2.67;;;4.00;99.90;;;;;;5104937;28;20360;-76
2021/04/13 00:56:39;;;;;;;4.28;2.20;;;4.00;99.90;;;;;;5105829;28;20024;-77
2021/04/13 00:59:12;;;;;;;4.90;2.22;;;4.00;99.90;;;;;;5088870;28;20433;-75
2021/04/13 01:01:48;;;;;;;3.05;2.35;;;4.00;99.90;;;;;;5110930;28;20019;-79
2021/04/13 01:04:20;;;;;;;3.10;2.40;;;3.90;99.90;;;;;;5112595;28;20030;-76
2021/04/13 01:07:10;;;;;;;3.58;2.25;;;3.90;99.90;;;;;;5109877;28;20499;-76
2021/04/13 01:09:45;;;;;;;3.15;2.47;;;3.90;99.90;;;;;;5110031;28;20040;-77
2021/04/13 01:12:28;;;;;;;4.57;2.50;;;4.00;99.90;;;;;;5106507;28;20015;-76
2021/04/13 01:14:54;;;;;;;4.15;2.40;;;4.00;99.90;;;;;;5105604;28;20047;-76
2021/04/13 01:17:21;;;;;;;2.97;2.35;;;4.00;99.90;;;;;;5109820;28;20353;-77
2021/04/13 01:20:06;;;;;;;3.55;2.10;;;3.90;99.90;;;;;;5103875;28;20034;-76
2021/04/13 01:22:44;;;;;;;3.95;2.60;;;4.10;99.90;;;;;;5112136;28;20026;-76
2021/04/13 01:25:21;;;;;;;3.88;2.17;;;4.10;99.90;;;;;;5086559;28;20629;-76
2021/04/13 01:28:08;;;;;;;3.95;2.17;;;4.10;99.90;;;;;;5099704;28;20444;-77
2021/04/13 01:30:42;;;;;;;4.28;2.75;;;4.00;99.90;;;;;;5113003;28;20032;-75
2021/04/13 01:33:12;;;;;;;5.60;2.75;;;4.00;99.90;;;;;;5109782;28;20171;-76
2021/04/13 01:35:46;;;;;;;3.03;2.35;;;3.90;99.90;;;;;;5109314;28;20028;-77
2021/04/13 01:38:28;;;;;;;4.78;2.30;;;3.90;99.90;;;;;;5110421;28;20115;-77
2021/04/13 01:43:46;;;;;;;3.58;2.58;;;3.90;99.90;;;;;;5111275;28;19915;-77
2021/04/13 01:46:13;;;;;;;5.10;2.72;;;;;;;;;;5112997;27;20065;-76
2021/04/13 01:48:41;;;;;;;5.70;3.08;;;3.80;99.90;;;;;;5120890;28;20039;-77
2021/04/13 01:51:10;;;;;;;5.45;2.88;;;3.80;99.90;;;;;;5118177;28;20027;-76
2021/04/13 01:53:40;;;;;;;6.75;3.67;;;3.90;99.90;;;;;;5097282;28;20061;-77
2021/04/13 01:56:34;;;;;;;5.13;3.78;;;3.80;99.90;;;;;;5114902;28;20040;-75
2021/04/13 01:59:09;;;;;;;10.50;5.50;;;3.80;99.90;;;;;;5103642;28;20032;-78
2021/04/13 02:01:40;;;;;;;10.93;5.18;;;3.80;99.90;;;;;;5115867;28;20478;-76
2021/04/13 02:04:16;;;;;;;11.63;6.00;;;3.70;99.90;;;;;;5090394;28;20056;-77
2021/04/13 02:06:53;;;;;;;9.25;5.10;;;3.70;99.90;;;;;;5111222;28;20064;-76
2021/04/13 02:09:43;;;;;;;7.05;4.55;;;3.80;99.90;;;;;;5107255;28;20039;-76
2021/04/13 02:12:17;;;;;;;6.60;4.07;;;3.70;99.90;;;;;;5111178;28;20059;-75
2021/04/13 02:14:55;;;;;;;4.63;3.20;;;3.70;99.90;;;;;;5095564;28;20028;-77
2021/04/13 02:17:33;;;;;;;4.43;3.35;;;3.60;99.90;;;;;;5102517;28;20114;-76
2021/04/13 02:19:59;;;;;;;9.60;4.55;;;3.70;99.90;;;;;;5107039;28;20101;-75
2021/04/13 02:22:27;;;;;;;6.35;4.03;;;3.60;99.90;;;;;;5101986;28;20140;-75
2021/04/13 02:24:58;;;;;;;4.63;3.53;;;3.60;99.90;;;;;;5103158;28;20028;-75
2021/04/13 02:27:27;;;;;;;4.70;3.75;;;3.50;99.90;;;;;;5104380;28;20028;-75
2021/04/13 02:30:01;;;;;;;4.90;4.15;;;3.50;99.90;;;;;;5104473;28;20043;-75
2021/04/13 02:32:30;;;;;;;5.57;3.70;;;3.50;99.90;;;;;;5102361;28;20034;-75
2021/04/13 02:35:02;;;;;;;4.43;3.50;;;3.50;99.90;;;;;;5104887;28;20110;-75
2021/04/13 02:37:37;;;;;;;6.28;3.65;;;3.50;99.90;;;;;;5103885;28;20042;-75
2021/04/13 02:40:08;;;;;;;7.85;4.43;;;3.40;99.90;;;;;;5104198;28;20510;-76
2021/04/13 02:42:38;;;;;;;4.60;3.90;;;3.40;99.90;;;;;;5103455;28;20048;-76
2021/04/13 02:45:09;;;;;;;7.25;4.70;;;3.40;99.90;;;;;;5106790;28;20074;-75
2021/04/13 02:47:47;;;;;;;7.80;4.28;;;3.30;99.90;;;;;;5104798;28;20027;-75
2021/04/13 02:50:17;;;;;;;5.10;4.30;;;3.30;99.90;;;;;;5084044;28;20084;-76
2021/04/13 02:52:48;;;;;;;5.97;4.25;;;3.30;99.90;;;;;;5102532;28;20020;-75
2021/04/13 02:55:24;;;;;;;7.65;4.38;;;3.30;99.90;;;;;;5110494;28;20034;-75
2021/04/13 02:57:52;;;;;;;7.35;4.70;;;3.20;99.90;;;;;;5106537;28;20090;-75
2021/04/13 03:00:22;;;;;;;5.50;4.32;;;3.20;99.90;;;;;;5104123;28;20425;-78
2021/04/13 03:02:57;;;;;;;6.43;4.18;;;3.20;99.90;;;;;;5110138;28;20068;-78
2021/04/13 03:05:25;;;;;;;6.97;4.80;;;3.20;99.90;;;;;;5106809;28;20085;-78
2021/04/13 03:07:52;;;;;;;7.45;4.97;;;;;;;;;;5102693;28;20503;-78
2021/04/13 03:10:24;;;;;;;7.65;5.88;;;3.20;99.90;;;;;;5106669;28;20031;-77
2021/04/13 03:12:52;;;;;;;6.80;4.45;;;3.10;99.90;;;;;;5099513;28;20479;-76
2021/04/13 03:15:27;;;;;;;7.20;4.68;;;3.10;99.90;;;;;;5102127;28;20035;-76
2021/04/13 03:17:57;;;;;;;7.93;5.20;;;3.10;99.90;;;;;;5099704;28;20040;-79
2021/04/13 03:20:27;;;;;;;8.48;5.82;;;3.10;99.90;;;;;;5104032;28;20032;-77
2021/04/13 03:22:55;;;;;;;6.20;5.10;;;3.00;99.90;;;;;;5101551;28;20533;-77
2021/04/13 03:25:24;;;;;;;6.00;4.72;;;3.00;99.90;;;;;;5101592;28;20032;-78
2021/04/13 03:27:51;;;;;;;8.73;5.60;;;3.00;99.90;;;;;;5099511;28;20087;-76
2021/04/13 03:30:30;;;;;;;7.07;5.13;;;3.00;99.90;;;;;;5104385;28;20037;-77
2021/04/13 03:33:28;;;;;;;9.05;5.22;;;3.00;99.90;;;;;;5103722;28;20028;-77
2021/04/13 03:36:03;;;;;;;7.35;5.60;;;3.00;99.90;;;;;;5079297;28;20491;-77
2021/04/13 03:38:28;;;;;;;6.75;4.85;;;3.00;99.90;;;;;;5110038;28;20020;-78
2021/04/13 03:40:54;;;;;;;9.18;5.90;;;3.00;99.90;;;;;;5113029;28;20388;-77
2021/04/13 03:43:27;;;;;;;6.10;4.70;;;3.00;99.90;;;;;;5113253;28;20034;-78
2021/04/13 03:46:02;;;;;;;6.32;5.20;;;3.00;99.90;;;;;;5103297;28;20467;-77
2021/04/13 03:48:30;;;;;;;6.97;5.30;;;2.90;99.90;;;;;;5112013;28;20111;-77
2021/04/13 03:51:08;;;;;;;8.05;6.28;;;2.90;99.90;;;;;;5110759;28;20032;-77
2021/04/13 03:53:39;;;;;;;12.25;6.40;;;3.00;99.90;;;;;;5108302;28;20028;-79
2021/04/13 03:56:11;;;;;;;13.40;6.78;;;2.90;99.90;;;;;;5109022;28;20073;-78
2021/04/13 03:58:43;;;;;;;10.85;6.68;;;2.90;99.90;;;;;;5110307;28;20024;-76
2021/04/13 04:01:11;;;;;;;8.25;6.00;;;2.90;99.90;;;;;;5110742;28;20022;-75
2021/04/13 04:03:41;;;;;;;12.55;6.65;;;2.80;99.90;;;;;;5105069;28;20031;-75
2021/04/13 04:06:07;;;;;;;12.48;8.02;;;2.90;99.90;;;;;;5110878;28;20073;-75
2021/04/13 04:08:40;;;;;;;9.52;6.50;;;2.80;99.90;;;;;;5085176;28;20048;-75
2021/04/13 04:11:07;;;;;;;9.23;5.68;;;2.80;99.90;;;;;;5108790;28;20384;-74
2021/04/13 04:13:47;;;;;;;14.13;7.60;;;2.80;99.90;;;;;;5107050;28;20070;-75
2021/04/13 04:16:30;;;;;;;14.50;7.40;;;2.80;99.90;;;;;;5113128;28;20110;-75
2021/04/13 04:19:09;;;;;;;12.10;6.57;;;2.70;99.90;;;;;;5109027;28;20052;-75
2021/04/13 04:21:36;;;;;;;10.15;5.95;;;2.80;99.90;;;;;;5086744;28;20055;-74
2021/04/13 04:24:28;;;;;;;14.90;7.80;;;2.70;99.90;;;;;;5098753;28;20133;-75
2021/04/13 04:27:00;;;;;;;9.25;5.65;;;2.70;99.90;;;;;;5094743;28;20114;-75
2021/04/13 04:29:29;;;;;;;13.75;7.43;;;2.80;99.90;;;;;;5104369;28;20503;-76
2021/04/13 04:32:14;;;;;;;10.95;6.55;;;2.80;99.90;;;;;;5104230;28;20035;-75
2021/04/13 04:34:47;;;;;;;12.25;7.13;;;2.80;99.90;;;;;;5105602;28;20099;-76
2021/04/13 04:37:23;;;;;;;12.27;6.80;;;2.90;99.90;;;;;;5100751;28;20544;-78
2021/04/13 04:40:09;;;;;;;15.85;7.97;;;2.90;99.90;;;;;;5101926;28;20020;-75
2021/04/13 04:42:38;;;;;;;17.23;9.55;;;2.90;99.90;;;;;;5106195;28;20027;-76
2021/04/13 04:45:19;;;;;;;14.60;7.72;;;2.90;99.90;;;;;;5089421;28;20028;-76
2021/04/13 04:47:47;;;;;;;13.57;8.07;;;3.00;99.90;;;;;;5108931;28;20080;-75
2021/04/13 04:50:15;;;;;;;14.82;7.55;;;3.00;99.90;;;;;;5105240;28;21309;-75
2021/04/13 04:52:41;;;;;;;18.30;8.55;;;3.20;99.90;;;;;;5110220;28;20030;-75
2021/04/13 04:55:08;;;;;;;14.45;8.50;;;3.30;99.90;;;;;;5090069;28;20028;-75
2021/04/13 04:57:34;;;;;;;14.00;7.60;;;3.30;99.90;;;;;;5106222;28;20035;-76
2021/04/13 04:59:59;;;;;;;13.00;8.43;;;3.40;99.90;;;;;;5109168;28;20217;-76
2021/04/13 05:02:25;;;;;;;14.75;7.97;;;3.40;99.90;;;;;;5113938;28;20538;-77
2021/04/13 05:04:51;;;;;;;11.48;7.20;;;3.40;99.90;;;;;;5111175;28;20028;-75
2021/04/13 05:07:17;;;;;;;13.13;8.38;;;3.50;99.90;;;;;;5109849;28;20079;-76
2021/04/13 05:09:43;;;;;;;12.38;8.38;;;3.50;99.90;;;;;;5114075;28;20124;-75
2021/04/13 05:12:09;;;;;;;14.63;8.20;;;3.50;99.90;;;;;;5113996;28;20028;-76
2021/04/13 05:14:35;;;;;;;17.92;10.45;;;3.50;99.90;;;;;;5122534;28;20035;-76
2021/04/13 05:17:01;;;;;;;14.27;7.65;;;;;;;;;;5112119;28;20379;-75
2021/04/13 05:19:27;;;;;;;11.85;7.57;;;3.60;99.90;;;;;;5112403;28;20032;-78
2021/04/13 05:21:53;;;;;;;16.10;9.65;;;;;;;;;;5106636;28;20048;-76
2021/04/13 05:24:19;;;;;;;14.85;8.82;;;3.90;99.90;;;;;;5105790;28;20032;-79
2021/04/13 05:26:45;;;;;;;14.85;8.90;;;;;;;;;;5108173;28;20026;-78
2021/04/13 05:29:11;;;;;;;18.23;10.30;;;4.40;99.90;;;;;;5091853;28;20048;-76
2021/04/13 05:31:40;;;;;;;16.83;8.90;;;5.30;99.90;;;;;;5112627;28;20087;-77
2021/04/13 05:34:07;;;;;;;15.57;9.40;;;5.30;99.90;;;;;;5110646;28;20509;-78
2021/04/13 05:36:34;;;;;;;11.18;7.38;;;5.50;99.90;;;;;;5094188;28;20051;-76
2021/04/13 05:39:00;;;;;;;15.23;8.80;;;5.80;99.90;;;;;;5103709;28;20031;-76
2021/04/13 05:41:27;;;;;;;11.80;7.70;;;6.00;99.90;;;;;;5089278;28;20022;-77
2021/04/13 05:43:53;;;;;;;12.73;7.93;;;5.60;99.90;;;;;;5108021;28;20544;-76
2021/04/13 05:46:25;;;;;;;12.35;7.75;;;5.70;99.90;;;;;;5110330;28;20070;-77
2021/04/13 05:48:51;;;;;;;10.57;7.75;;;5.80;99.90;;;;;;5101853;28;20047;-78
2021/04/13 05:51:18;;;;;;;12.20;7.90;;;5.90;99.90;;;;;;5114720;28;20065;-78
2021/04/13 05:53:44;;;;;;;11.20;7.55;;;;;;;;;;5115536;28;20444;-77
2021/04/13 05:56:15;;;;;;;10.57;7.57;;;6.40;99.90;;;;;;5099252;28;20034;-77
2021/04/13 05:58:49;;;;;;;10.53;7.27;;;6.80;99.90;;;;;;5108247;28;20028;-77
2021/04/13 06:01:16;;;;;;;9.27;6.50;;;7.10;99.90;;;;;;5085263;28;20024;-77
2021/04/13 06:03:44;;;;;;;10.10;7.68;;;7.60;99.90;;;;;;5097326;28;20083;-77
2021/04/13 06:06:10;;;;;;;9.32;6.78;;;8.00;98.20;;;;;;5093879;28;20731;-77
2021/04/13 06:08:36;;;;;;;9.68;6.22;;;8.10;97.20;;;;;;5092047;28;20489;-76
2021/04/13 06:11:01;;;;;;;7.97;6.80;;;7.90;97.20;;;;;;5096384;28;20035;-76
2021/04/13 06:13:27;;;;;;;8.50;6.28;;;7.50;98.40;;;;;;5107399;28;20027;-79
2021/04/13 06:15:54;;;;;;;7.70;6.72;;;7.40;98.90;;;;;;5099293;28;20035;-76
2021/04/13 06:18:21;;;;;;;7.88;6.07;;;7.40;99.10;;;;;;5101838;28;20035;-76
2021/04/13 06:20:47;;;;;;;8.77;5.85;;;8.00;97.10;;;;;;5109819;28;20718;-78
2021/04/13 06:23:13;;;;;;;8.30;5.65;;;8.20;96.20;;;;;;5094416;28;20024;-76
2021/04/13 06:25:42;;;;;;;8.10;6.18;;;8.40;94.10;;;;;;5098927;28;20464;-75
2021/04/13 06:28:07;;;;;;;12.40;7.40;;;8.50;93.70;;;;;;5091750;28;20028;-80
2021/04/13 06:30:33;;;;;;;8.13;6.65;;;8.10;93.60;;;;;;5092568;28;20028;-81
2021/04/13 06:33:01;;;;;;;7.47;5.68;;;8.40;93.80;;;;;;5093620;28;20389;-80
2021/04/13 06:35:28;;;;;;;8.85;5.90;;;8.40;92.10;;;;;;5102939;28;20101;-79
2021/04/13 06:37:57;;;;;;;8.32;6.32;;;8.40;93.90;;;;;;5097223;28;20024;-74
2021/04/13 06:40:32;;;;;;;12.55;7.05;;;9.50;89.40;;;;;;5103652;28;20017;-80
2021/04/13 06:43:25;;;;;;;6.80;5.20;;;10.10;79.70;;;;;;5103604;28;20408;-86
2021/04/13 06:46:01;;;;;;;8.55;5.80;;;10.10;80.10;;;;;;5097222;28;20391;-76
2021/04/13 06:48:51;;;;;;;6.90;5.13;;;10.30;78.80;;;;;;5104007;28;20097;-82
2021/04/13 06:51:27;;;;;;;5.95;4.70;;;11.50;71.90;;;;;;5102957;28;20111;-82
2021/04/13 06:54:10;;;;;;;6.05;5.07;;;12.40;65.00;;;;;;5101525;28;20031;-77
2021/04/13 06:57:17;;;;;;;8.38;4.70;;;13.50;59.50;;;;;;5103666;28;20118;-80
2021/04/13 07:00:28;;;;;;;7.95;4.28;;;13.50;58.00;;;;;;5019051;28;20506;-84
2021/04/13 07:03:02;;;;;;;7.35;5.07;;;13.30;58.40;;;;;;5104248;28;20112;-82
2021/04/13 07:05:40;;;;;;;6.03;4.57;;;;;;;;;;5105784;28;20047;-83
2021/04/13 07:08:44;;;;;;;8.35;4.72;;;14.10;56.50;;;;;;5108907;28;20090;-82
2021/04/13 07:11:26;;;;;;;6.90;5.15;;;;;;;;;;5109965;28;20036;-82
2021/04/13 07:14:02;;;;;;;7.32;4.75;;;;;;;;;;5103721;28;20039;-81
2021/04/13 07:16:42;;;;;;;6.90;4.72;;;14.70;53.60;;;;;;5107844;28;20028;-82
2021/04/13 07:19:12;;;;;;;7.87;5.03;;;;;;;;;;5109798;28;20027;-81
2021/04/13 07:22:22;;;;;;;8.02;4.30;;;14.80;53.00;;;;;;5109257;28;20028;-83
2021/04/13 07:25:01;;;;;;;7.00;4.03;;;;;;;;;;5104539;28;20022;-82
2021/04/13 07:27:32;;;;;;;6.82;4.45;;;;;;;;;;5108558;28;20422;-81
2021/04/13 07:30:07;;;;;;;;;;;14.80;53.00;;;;;;5086761;28;20040;-80
2021/04/13 07:32:34;;;;;;;6.28;3.75;;;;;;;;;;5081088;28;19980;-81
2021/04/13 07:35:00;;;;;;;5.28;4.20;;;;;;;;;;5103967;28;20027;-77
2021/04/13 07:37:42;;;;;;;7.25;4.20;;;13.10;55.90;;;;;;5103277;28;20054;-80
2021/04/13 07:40:27;;;;;;;5.10;3.80;;;13.30;55.50;;;;;;5101389;28;20045;-79
2021/04/13 07:42:57;;;;;;;8.00;4.50;;;14.10;55.20;;;;;;5103100;28;20039;-88
2021/04/13 07:45:30;;;;;;;7.03;3.93;;;;;;;;;;5107838;28;20015;-80
2021/04/13 07:48:28;;;;;;;8.20;3.78;;;13.50;54.60;;;;;;5102539;28;20607;-82
2021/04/13 07:50:56;;;;;;;7.43;4.60;;;13.90;54.90;;;;;;5099927;28;20035;-84
2021/04/13 07:53:40;;;;;;;5.20;3.83;;;13.90;54.90;;;;;;5107414;28;20035;-77
2021/04/13 07:56:21;;;;;;;7.15;3.75;;;15.30;52.90;;;;;;5105105;28;20549;-77
2021/04/13 07:59:24;;;;;;;6.53;3.67;;;15.20;52.50;;;;;;5104260;28;20043;-82
2021/04/13 08:01:55;;;;;;;8.90;4.20;;;14.70;52.30;;;;;;5075651;28;20028;-84
2021/04/13 08:04:24;;;;;;;4.70;3.20;;;14.60;52.80;;;;;;5096665;28;20498;-83
2021/04/13 08:07:17;;;;;;;10.88;4.95;;;13.80;53.80;;;;;;5095643;28;20026;-84
2021/04/13 08:09:55;;;;;;;5.40;3.38;;;13.80;53.40;;;;;;5102848;28;20031;-84
2021/04/13 08:12:28;;;;;;;6.10;3.50;;;15.00;53.20;;;;;;5102174;28;20024;-78
2021/04/13 08:14:54;;;;;;;7.30;3.30;;;16.90;50.40;;;;;;5088715;28;20024;-82
2021/04/13 08:17:23;;;;;;;5.93;3.75;;;16.80;49.30;;;;;;5107943;28;20032;-80
2021/04/13 08:20:13;;;;;;;6.30;4.40;;;17.60;47.00;;;;;;5104572;28;20050;-85
2021/04/13 08:22:52;;;;;;;6.15;4.35;;;;;;;;;;5092811;28;20025;-88
2021/04/13 08:25:37;;;;;;;5.45;3.28;;;16.90;45.90;;;;;;5102690;28;20023;-78
2021/04/13 08:28:32;;;;;;;5.43;3.45;;;14.60;50.40;;;;;;5098977;28;20028;-79
2021/04/13 08:34:33;;;;;;;6.53;3.30;;;12.60;55.20;;;;;;5106439;28;20064;-81
2021/04/13 08:37:05;;;;;;;4.63;3.03;;;;;;;;;;5104853;28;20032;-75
2021/04/13 08:40:02;;;;;;;6.07;3.63;;;12.00;56.80;;;;;;5122876;28;20103;-79
2021/04/13 08:42:38;;;;;;;5.55;3.25;;;13.60;55.60;;;;;;5111977;28;20024;-77
2021/04/13 08:45:21;;;;;;;5.70;3.15;;;15.90;51.20;;;;;;5114018;28;20035;-77
2021/04/13 08:47:50;;;;;;;5.25;3.40;;;17.40;48.00;;;;;;5087941;28;20043;-79
2021/04/13 08:50:34;;;;;;;4.25;2.50;;;16.60;46.40;;;;;;5104377;28;20416;-74
2021/04/13 08:53:03;;;;;;;4.20;2.75;;;15.00;48.20;;;;;;5099798;28;20019;-75
2021/04/13 08:55:44;;;;;;;4.38;3.10;;;14.90;48.60;;;;;;5108294;28;20353;-78
2021/04/13 08:58:47;;;;;;;5.38;3.10;;;14.60;50.00;;;;;;5107394;28;20049;-75
2021/04/13 09:01:21;;;;;;;4.82;2.90;;;14.30;49.80;;;;;;5095830;28;20039;-84
2021/04/13 09:03:46;;;;;;;3.53;2.45;;;14.20;50.40;;;;;;5084885;28;20032;-81
2021/04/13 09:06:18;;;;;;;3.78;2.20;;;13.50;50.40;;;;;;5106698;28;20027;-82
2021/04/13 09:08:59;;;;;;;4.97;2.78;;;15.00;50.40;;;;;;5100156;28;20044;-83
2021/04/13 09:12:01;;;;;;;4.70;2.70;;;15.10;49.20;;;;;;5100388;28;20035;-80
2021/04/13 09:14:58;;;;;;;5.78;3.10;;;15.00;49.80;;;;;;5077780;28;20023;-79
2021/04/13 09:17:38;;;;;;;5.10;3.00;;;15.20;48.90;;;;;;5085520;28;20034;-82
2021/04/13 09:20:27;;;;;;;4.47;2.67;;;15.00;50.00;;;;;;5093650;28;20027;-81
2021/04/13 09:22:52;;;;;;;4.55;2.53;;;16.30;47.50;;;;;;5101481;27;20020;-77
2021/04/13 09:25:32;;;;;;;4.82;2.47;;;16.70;46.70;;;;;;5099415;28;20028;-77
2021/04/13 09:28:15;;;;;;;5.55;3.00;;;17.00;46.80;;;;;;5095325;28;20074;-78
2021/04/13 09:30:47;;;;;;;4.75;2.78;;;16.80;46.40;;;;;;5091355;28;20035;-82
2021/04/13 09:33:45;;;;;;;8.40;3.20;;;16.80;46.80;;;;;;5080205;28;20345;-82
2021/04/13 09:36:11;;;;;;;5.70;2.53;;;;;;;;;;5104234;28;20020;-83
2021/04/13 09:39:10;;;;;;;4.75;2.50;;;15.50;47.60;;;;;;5090943;28;20024;-82
2021/04/13 09:41:47;;;;;;;3.53;2.30;;;15.30;48.00;;;;;;5100235;28;20062;-84
2021/04/13 09:44:17;;;;;;;6.43;3.10;;;;;;;;;;5111134;28;20035;-80
2021/04/13 09:46:56;;;;;;;11.27;7.95;;;13.90;50.30;;;;;;5103472;28;20035;-78
2021/04/13 09:49:55;;;;;;;8.57;3.47;;;13.70;51.10;;;;;;5103816;28;20115;-82
2021/04/13 09:52:49;;;;;;;5.55;2.67;;;14.80;50.30;;;;;;5106061;28;20027;-77
2021/04/13 09:55:28;;;;;;;8.57;2.78;;;13.50;51.60;;;;;;5101711;28;20119;-82
2021/04/13 09:58:26;;;;;;;5.07;2.38;;;12.60;52.20;;;;;;5085461;28;20027;-83
2021/04/13 10:01:29;;;;;;;9.60;3.45;;;12.60;52.10;;;;;;5069553;28;20330;-81
2021/04/13 10:04:16;;;;;;;3.95;2.42;;;13.30;50.40;;;;;;5079845;28;20057;-78
2021/04/13 10:07:09;;;;;;;5.10;2.58;;;12.20;52.10;;;;;;5086947;28;20035;-75
2021/04/13 10:09:48;;;;;;;4.40;2.28;;;11.80;52.80;;;;;;5057251;28;20528;-77
2021/04/13 10:12:34;;;;;;;5.82;2.30;;;13.20;51.20;;;;;;5060324;28;20028;-79
2021/04/13 10:15:15;;;;;;;5.32;2.95;;;15.00;48.20;;;;;;5030243;28;20087;-82
2021/04/13 10:18:18;;;;;;;5.82;2.78;;;14.90;47.30;;;;;;5048268;28;20020;-79
2021/04/13 10:21:21;;;;;;;5.82;2.85;;;14.30;48.00;;;;;;5055652;28;20572;-82
2021/04/13 10:24:38;;;;;;;6.88;3.17;;;13.10;51.20;;;;;;5062059;28;20028;-85
2021/04/13 10:27:21;;;;;;;5.78;3.00;;;12.10;53.80;;;;;;5057891;28;20029;-87
2021/04/13 10:30:11;;;;;;;5.47;2.72;;;12.00;53.90;;;;;;5065267;28;20058;-82
2021/04/13 10:32:45;;;;;;;7.97;3.10;;;11.20;54.80;;;;;;5046215;28;20029;-85
2021/04/13 10:35:58;;;;;;;6.78;2.25;;;10.90;55.10;;;;;;5057332;28;20035;-87
2021/04/13 10:38:36;;;;;;;7.15;3.90;;;;;;;;;;5062063;28;20032;-80
2021/04/13 10:41:08;;;;;;;8.23;2.78;;;;;;;;;;5058399;28;20033;-78
2021/04/13 10:43:54;;;;;;;5.38;2.70;;;;;;;;;;5066344;28;20021;-85
2021/04/13 10:46:58;;;;;;;6.90;2.58;;;10.80;56.20;;;;;;5066008;28;20554;-83
2021/04/13 10:50:06;;;;;;;4.47;2.60;;;11.00;55.00;;;;;;5062504;28;20036;-78
2021/04/13 10:53:00;;;;;;;5.22;2.50;;;11.40;55.10;;;;;;5062633;28;20028;-82
2021/04/13 10:55:55;;;;;;;4.35;2.15;;;11.20;54.70;;;;;;5063048;28;20114;-80
2021/04/13 10:58:45;;;;;;;3.53;2.35;;;11.20;55.20;;;;;;5059610;28;20033;-78
2021/04/13 11:01:51;;;;;;;4.90;2.40;;;11.80;55.60;;;;;;5066184;28;20032;-88
2021/04/13 11:04:38;;;;;;;6.15;3.42;;;12.00;55.00;;;;;;5068346;28;20770;-84
2021/04/13 11:07:38;;;;;;;7.28;2.50;;;12.40;53.50;;;;;;5065559;28;20032;-87
2021/04/13 11:10:25;;;;;;;4.32;2.80;;;14.10;51.60;;;;;;5101407;28;20039;-84
2021/04/13 11:13:30;;;;;;;3.30;1.90;;;17.00;45.90;;;;;;5102422;28;20100;-83
2021/04/13 11:16:35;;;;;;;5.13;3.15;;;15.10;47.70;;;;;;5106859;28;20100;-87
2021/04/13 11:19:02;;;;;;;6.97;2.75;;;;;;;;;;5106831;28;20058;-83
2021/04/13 11:22:11;;;;;;;4.43;2.90;;;13.80;48.70;;;;;;5096535;28;20020;-90
2021/04/13 11:24:43;;;;;;;5.80;2.72;;;;;;;;;;5087091;28;20036;-87
2021/04/13 11:27:11;;;;;;;4.25;2.40;;;;;;;;;;5092580;28;20036;-89
2021/04/13 11:30:02;;;;;;;5.88;2.63;;;11.50;51.80;;;;;;5106798;28;20062;-91
2021/04/13 11:33:13;;;;;;;4.03;2.15;;;11.30;51.10;;;;;;5092076;28;20036;-80
2021/04/13 11:35:53;;;;;;;7.18;2.63;;;10.50;53.20;;;;;;5091243;28;20032;-87
2021/04/13 11:39:02;;;;;;;5.25;2.20;;;10.30;54.10;;;;;;5110127;28;20042;-81
2021/04/13 11:41:48;;;;;;;5.28;2.05;;;11.30;52.80;;;;;;5108102;28;20107;-85
2021/04/13 11:44:41;;;;;;;4.50;2.10;;;11.00;52.40;;;;;;5105812;27;20028;-81
2021/04/13 11:47:13;;;;;;;7.05;2.55;;;;;;;;;;5106091;28;20048;-79
2021/04/13 11:50:22;;;;;;;8.88;2.40;;;10.20;54.00;;;;;;5112694;28;20170;-80
2021/04/13 11:53:07;;;;;;;6.30;3.10;;;10.60;54.00;;;;;;5074293;28;20401;-82
2021/04/13 11:55:51;;;;;;;6.65;2.80;;;10.30;55.60;;;;;;5103847;28;20032;-86
2021/04/13 11:59:09;;;;;;;;;;;;;;;;;;;;;
2021/04/13 12:01:44;;;;;;;6.30;2.75;;;11.00;54.30;;;;;;5093535;28;20136;-82
2021/04/13 12:04:24;;;;;;;5.47;2.10;;;11.40;53.70;;;;;;5109079;28;20553;-79
2021/04/13 12:07:03;;;;;;;3.53;1.80;;;11.40;54.20;;;;;;5098531;28;20032;-74
2021/04/13 12:10:02;;;;;;;3.15;1.73;;;12.00;52.00;;;;;;5102824;28;20063;-76
2021/04/13 12:12:31;;;;;;;3.67;2.30;;;12.30;50.40;;;;;;5107848;28;20080;-76
2021/04/13 12:15:17;;;;;;;4.80;2.28;;;11.70;51.60;;;;;;5086284;28;20028;-76
2021/04/13 12:17:50;;;;;;;5.25;1.90;;;12.90;50.10;;;;;;5063780;28;20422;-83
2021/04/13 12:20:35;;;;;;;4.60;1.92;;;12.90;47.90;;;;;;5086057;28;20086;-77
2021/04/13 12:23:13;;;;;;;4.18;2.00;;;12.30;48.60;;;;;;5100517;28;20155;-75
2021/04/13 12:25:54;;;;;;;4.70;2.90;;;11.80;50.70;;;;;;5106847;28;20028;-78
2021/04/13 12:28:34;;;;;;;5.63;2.13;;;12.40;50.80;;;;;;5103290;28;20039;-75
2021/04/13 12:31:13;;;;;;;5.32;2.40;;;13.10;48.40;;;;;;5107746;28;20027;-77
2021/04/13 12:33:52;;;;;;;4.78;1.80;;;13.10;48.90;;;;;;5089540;28;20024;-78
2021/04/13 12:36:47;;;;;;;6.43;1.77;;;13.00;48.70;;;;;;5107589;28;20472;-80
2021/04/13 12:39:45;;;;;;;4.85;1.77;;;13.00;49.20;;;;;;5111282;28;20020;-79
2021/04/13 12:42:47;;;;;;;6.60;2.05;;;15.90;44.70;;;;;;5084816;28;20032;-78
2021/04/13 12:45:26;;;;;;;4.88;2.05;;;;;;;;;;5110639;28;20027;-78
2021/04/13 12:48:14;;;;;;;5.70;2.17;;;14.00;46.10;;;;;;5113060;28;20016;-79
2021/04/13 12:50:44;;;;;;;8.50;2.38;;;13.10;48.00;;;;;;5109578;28;20047;-78
2021/04/13 12:53:21;;;;;;;5.57;2.05;;;12.30;48.90;;;;;;5110976;27;20035;-79
2021/04/13 12:56:12;;;;;;;4.43;2.00;;;11.90;50.90;;;;;;5119944;28;20435;-77
2021/04/13 12:58:43;;;;;;;3.93;2.00;;;11.80;51.00;;;;;;5105989;28;20126;-79
2021/04/13 13:01:36;;;;;;;5.87;2.07;;;11.80;51.00;;;;;;5103084;28;20274;-78
2021/04/13 13:04:11;;;;;;;6.60;2.47;;;11.30;52.00;;;;;;5105294;28;20289;-77
2021/04/13 13:06:40;;;;;;;7.25;3.17;;;10.80;53.90;;;;;;5108079;28;20072;-78
2021/04/13 13:09:18;;;;;;;13.93;7.10;;;11.10;54.60;;;;;;5096981;28;20099;-82
2021/04/13 13:11:45;;;;;;;5.70;2.72;;;;;;;;;;5112477;28;20024;-82
2021/04/13 13:14:14;;;;;;;5.95;2.45;;;12.20;53.70;;;;;;5107184;28;20028;-78
2021/04/13 13:16:40;;;;;;;8.45;3.38;;;;;;;;;;5111348;28;20031;-81
2021/04/13 13:19:32;;;;;;;7.45;2.33;;;15.80;46.30;;;;;;5089323;28;20086;-80
2021/04/13 13:22:27;;;;;;;8.15;2.90;;;16.70;42.50;;;;;;5102541;28;20031;-81
2021/04/13 13:25:11;;;;;;;5.03;2.33;;;;;;;;;;5101093;28;20028;-81
2021/04/13 13:27:37;;;;;;;5.55;2.35;;;;;;;;;;5085600;28;20039;-86
2021/04/13 13:30:12;;;;;;;5.35;1.77;;;15.50;45.40;;;;;;5108209;28;20063;-86
2021/04/13 13:32:38;;;;;;;5.18;2.40;;;;;;;;;;5112679;28;20035;-85
2021/04/13 13:35:14;;;;;;;3.08;1.55;;;16.00;42.90;;;;;;5088831;28;20032;-85
2021/04/13 13:38:01;;;;;;;4.70;1.83;;;16.60;42.40;;;;;;5090342;28;20031;-88
2021/04/13 13:40:39;;;;;;;5.85;3.63;;;16.90;41.60;;;;;;5089902;28;20077;-85
2021/04/13 13:43:08;;;;;;;3.83;1.70;;;17.30;41.40;;;;;;5095984;28;20138;-86
2021/04/13 13:45:34;;;;;;;2.92;1.55;;;;;;;;;;5107306;28;20046;-90
2021/04/13 13:48:00;;;;;;;3.22;1.65;;;;;;;;;;5088043;28;20543;-85
2021/04/13 13:50:40;;;;;;;4.78;1.80;;;16.90;41.50;;;;;;5101693;28;20114;-86
2021/04/13 13:53:18;;;;;;;3.67;1.80;;;16.50;42.10;;;;;;5104381;28;20049;-86
2021/04/13 13:55:59;;;;;;;5.32;2.00;;;16.30;42.60;;;;;;5089511;28;20078;-85
2021/04/13 13:58:34;;;;;;;4.57;2.08;;;15.10;42.30;;;;;;5110576;28;20322;-85
2021/04/13 14:01:23;;;;;;;4.60;1.63;;;14.00;45.70;;;;;;5104831;28;20044;-82
2021/04/13 14:03:52;;;;;;;5.72;1.88;;;;;;;;;;5100663;28;20025;-81